Terminal Aerodrome Forecast
Issued by NWS

Home | Current Version | Previous Version | Graphics & Text | Print | Product List | Glossary Off
Versions: 1 2 3 4 5 6 7 8 9 10 11 12 13

000
FTUS43 KABR 301123
TAFPIR
TAF
KPIR 301123Z 3012/0112 15014KT P6SM SCT250
     FM301500 14017G24KT P6SM SCT250
     FM010300 13010KT P6SM BKN250=

USA.gov is the U.S. government's official web portal to all federal, state and local government web resources and services.